createdAt,value
2017-12-30T00:01:02.573Z,36.60
2017-12-30T00:03:30.192Z,36.60
2017-12-30T00:05:58.613Z,36.80
2017-12-30T00:08:26.239Z,36.70
2017-12-30T00:10:53.899Z,37.00
2017-12-30T00:13:21.705Z,36.80
2017-12-30T00:15:50.094Z,35.70
2017-12-30T00:18:17.746Z,35.70
2017-12-30T00:20:45.406Z,35.10
2017-12-30T00:23:13.042Z,34.70
2017-12-30T00:25:40.665Z,34.40
2017-12-30T00:28:08.284Z,34.40
2017-12-30T00:30:36.700Z,33.80
2017-12-30T00:33:04.356Z,33.80
2017-12-30T00:35:32.022Z,33.50
2017-12-30T00:37:59.639Z,33.20
2017-12-30T00:40:27.256Z,32.90
2017-12-30T00:42:55.104Z,32.50
2017-12-30T00:45:22.724Z,32.20
2017-12-30T00:47:50.380Z,31.40
2017-12-30T00:50:18.768Z,31.50
2017-12-30T00:52:46.400Z,31.40
2017-12-30T00:55:14.951Z,31.30
2017-12-30T00:57:42.572Z,31.30
2017-12-30T01:00:10.226Z,31.90
2017-12-30T01:02:37.854Z,33.00
2017-12-30T01:05:05.621Z,33.70
2017-12-30T01:07:33.277Z,34.50
2017-12-30T01:10:00.890Z,34.00
2017-12-30T01:12:28.545Z,33.70
2017-12-30T01:14:56.194Z,34.30
2017-12-30T01:17:24.622Z,34.40
2017-12-30T01:19:52.282Z,34.40
2017-12-30T01:22:19.926Z,34.60
2017-12-30T01:24:47.577Z,34.70
2017-12-30T01:27:15.218Z,33.90
2017-12-30T01:29:42.844Z,33.90
2017-12-30T01:32:10.508Z,33.60
2017-12-30T01:34:38.128Z,32.40
2017-12-30T01:37:06.545Z,31.60
2017-12-30T01:39:34.164Z,31.60
2017-12-30T01:42:01.782Z,31.00
2017-12-30T01:44:30.262Z,31.30
2017-12-30T01:46:57.888Z,31.20
2017-12-30T01:49:25.677Z,31.00
2017-12-30T01:51:53.292Z,30.50
2017-12-30T01:54:20.908Z,30.40
2017-12-30T01:56:48.559Z,30.00
2017-12-30T01:59:16.197Z,29.30
2017-12-30T02:01:43.835Z,30.30
2017-12-30T02:04:11.451Z,29.20
2017-12-30T02:06:39.078Z,29.70
2017-12-30T02:09:06.738Z,29.50
2017-12-30T02:11:34.573Z,30.10
2017-12-30T02:14:02.994Z,30.00
2017-12-30T02:16:30.617Z,30.00
2017-12-30T02:18:58.228Z,30.80
2017-12-30T02:21:26.647Z,30.70
2017-12-30T02:23:54.264Z,30.60
2017-12-30T02:26:21.927Z,31.30
2017-12-30T02:28:49.537Z,31.00
2017-12-30T02:31:17.150Z,31.70
2017-12-30T02:33:44.970Z,31.10
2017-12-30T02:36:12.590Z,31.30
2017-12-30T02:38:40.234Z,31.20
2017-12-30T02:41:07.861Z,31.80
2017-12-30T02:43:36.253Z,32.20
2017-12-30T02:46:04.124Z,32.20
2017-12-30T02:48:31.738Z,32.60
2017-12-30T02:50:59.402Z,33.20
2017-12-30T02:53:27.020Z,33.00
2017-12-30T02:55:55.489Z,34.00
2017-12-30T02:58:23.969Z,34.10
2017-12-30T03:00:51.727Z,34.00
2017-12-30T03:03:19.388Z,34.40
2017-12-30T03:05:47.011Z,34.80
2017-12-30T03:08:14.689Z,35.10
2017-12-30T03:10:42.348Z,35.20
2017-12-30T03:13:09.969Z,35.20
2017-12-30T03:15:37.629Z,35.40
2017-12-30T03:18:05.255Z,35.20
2017-12-30T03:20:32.886Z,35.40
2017-12-30T03:23:00.541Z,35.50
2017-12-30T03:25:28.161Z,35.90
2017-12-30T03:27:56.576Z,36.80
2017-12-30T03:30:24.190Z,36.80
2017-12-30T03:32:51.817Z,36.70
2017-12-30T03:35:20.239Z,37.00
2017-12-30T03:37:47.856Z,37.00
2017-12-30T03:40:15.566Z,36.70
2017-12-30T03:42:43.185Z,36.90
2017-12-30T03:45:10.797Z,37.30
2017-12-30T03:47:38.441Z,37.70
2017-12-30T03:50:06.102Z,37.70
2017-12-30T03:52:33.754Z,37.50
2017-12-30T03:55:01.384Z,37.40
2017-12-30T03:57:29.013Z,38.00
2017-12-30T03:59:56.690Z,37.90
2017-12-30T04:02:24.296Z,38.30
2017-12-30T04:04:52.722Z,38.70
2017-12-30T04:07:20.337Z,38.80
2017-12-30T04:09:47.959Z,39.00
2017-12-30T04:12:15.647Z,38.50
2017-12-30T04:14:43.274Z,38.80
2017-12-30T04:17:10.917Z,38.70
2017-12-30T04:19:38.540Z,38.90
2017-12-30T04:22:06.177Z,39.10
2017-12-30T04:24:34.672Z,39.60
2017-12-30T04:27:02.285Z,39.60
2017-12-30T04:29:30.693Z,39.80
2017-12-30T04:31:58.305Z,39.80
2017-12-30T04:34:26.041Z,40.00
2017-12-30T04:36:53.697Z,41.30
2017-12-30T04:39:21.337Z,40.60
2017-12-30T04:41:48.994Z,40.30
2017-12-30T04:44:17.374Z,40.20
2017-12-30T04:46:45.028Z,40.20
2017-12-30T04:49:12.678Z,40.30
2017-12-30T04:51:40.308Z,40.60
2017-12-30T04:54:08.718Z,40.60
2017-12-30T04:56:36.324Z,40.60
2017-12-30T04:59:04.007Z,41.30
2017-12-30T05:01:31.732Z,41.20
2017-12-30T05:03:59.345Z,41.40
2017-12-30T05:06:27.766Z,41.70
2017-12-30T05:08:55.463Z,41.60
2017-12-30T05:11:23.972Z,42.10
2017-12-30T05:13:51.730Z,42.20
2017-12-30T05:16:19.388Z,42.10
2017-12-30T05:18:47.037Z,42.10
2017-12-30T05:21:14.967Z,41.90
2017-12-30T05:23:42.578Z,41.90
2017-12-30T05:26:10.239Z,42.10
2017-12-30T05:28:37.850Z,42.30
2017-12-30T05:31:05.666Z,42.60
2017-12-30T05:33:33.294Z,41.80
2017-12-30T05:36:00.926Z,42.40
2017-12-30T05:38:28.570Z,42.50
2017-12-30T05:40:56.201Z,42.50
2017-12-30T05:43:24.631Z,42.90
2017-12-30T05:45:52.250Z,43.00
2017-12-30T05:48:19.888Z,42.80
2017-12-30T05:50:47.547Z,43.20
2017-12-30T05:53:15.173Z,42.80
2017-12-30T05:55:42.813Z,42.70
2017-12-30T05:58:10.442Z,42.70
2017-12-30T06:00:38.837Z,43.10
2017-12-30T06:03:06.485Z,43.00
2017-12-30T06:05:34.133Z,43.10
2017-12-30T06:08:01.787Z,43.00
2017-12-30T06:10:29.402Z,43.10
2017-12-30T06:12:57.054Z,42.60
2017-12-30T06:15:24.950Z,42.90
2017-12-30T06:17:52.554Z,43.80
2017-12-30T06:20:20.218Z,43.60
2017-12-30T06:22:47.858Z,43.50
2017-12-30T06:25:15.649Z,43.80
2017-12-30T06:27:43.302Z,43.90
2017-12-30T06:30:10.945Z,43.70
2017-12-30T06:32:38.604Z,43.50
2017-12-30T06:35:06.224Z,44.10
2017-12-30T06:37:34.059Z,44.50
2017-12-30T06:40:01.727Z,44.80
2017-12-30T06:42:29.366Z,45.10
2017-12-30T06:44:57.016Z,45.50
2017-12-30T06:47:24.755Z,45.50
2017-12-30T06:49:52.362Z,46.10
2017-12-30T06:52:20.021Z,46.20
2017-12-30T06:54:47.641Z,46.10
2017-12-30T06:57:16.245Z,45.60
2017-12-30T06:59:43.873Z,45.60
2017-12-30T07:02:11.665Z,45.60
2017-12-30T07:04:39.314Z,46.10
2017-12-30T07:07:06.932Z,46.50
2017-12-30T07:09:34.636Z,46.60
2017-12-30T07:12:02.246Z,46.30
2017-12-30T07:14:29.883Z,46.10
2017-12-30T07:16:57.539Z,46.70
2017-12-30T07:19:25.163Z,46.50
2017-12-30T07:21:52.842Z,46.90
2017-12-30T07:24:20.476Z,47.20
2017-12-30T07:26:48.090Z,48.00
2017-12-30T07:29:15.873Z,48.20
2017-12-30T07:31:43.491Z,47.00
2017-12-30T07:34:11.154Z,47.20
2017-12-30T07:36:38.765Z,46.70
2017-12-30T07:39:06.390Z,45.90
2017-12-30T07:41:34.127Z,46.30
2017-12-30T07:44:01.750Z,46.00
2017-12-30T07:46:29.397Z,46.20
2017-12-30T07:48:57.006Z,45.80
2017-12-30T07:51:25.550Z,46.10
2017-12-30T07:53:53.207Z,46.70
2017-12-30T07:56:20.840Z,46.40
2017-12-30T07:58:48.477Z,46.50
2017-12-30T08:01:16.102Z,46.60
2017-12-30T08:03:43.720Z,46.60
2017-12-30T08:06:11.380Z,46.20
2017-12-30T08:08:38.993Z,46.00
2017-12-30T08:11:07.421Z,45.80
2017-12-30T08:13:35.033Z,45.80
2017-12-30T08:16:02.652Z,45.60
2017-12-30T08:18:31.069Z,44.60
2017-12-30T08:20:58.702Z,44.60
2017-12-30T08:23:26.363Z,44.00
2017-12-30T08:25:54.146Z,44.40
2017-12-30T08:28:22.521Z,43.80
2017-12-30T08:30:50.941Z,44.10
2017-12-30T08:33:18.577Z,44.10
2017-12-30T08:35:46.243Z,42.90
2017-12-30T08:38:14.032Z,43.00
2017-12-30T08:40:41.669Z,42.10
2017-12-30T08:43:10.088Z,41.60
2017-12-30T08:45:37.705Z,41.60
2017-12-30T08:48:05.538Z,41.20
2017-12-30T08:50:33.182Z,41.00
2017-12-30T08:53:01.559Z,39.60
2017-12-30T08:55:29.211Z,39.60
2017-12-30T08:57:56.840Z,39.00
2017-12-30T09:00:25.121Z,39.40
2017-12-30T09:02:52.772Z,39.20
2017-12-30T09:05:20.374Z,38.90
2017-12-30T09:07:48.021Z,38.30
2017-12-30T09:10:15.702Z,38.40
2017-12-30T09:12:43.358Z,38.20
2017-12-30T09:15:10.985Z,38.20
2017-12-30T09:17:38.608Z,38.60
2017-12-30T09:20:06.259Z,39.10
2017-12-30T09:22:34.649Z,39.00
2017-12-30T09:25:02.367Z,38.90
2017-12-30T09:27:29.973Z,38.70
2017-12-30T09:29:57.585Z,38.20
2017-12-30T09:32:25.234Z,37.40
2017-12-30T09:34:52.850Z,37.20
2017-12-30T09:37:20.531Z,37.30
2017-12-30T09:39:48.153Z,37.60
2017-12-30T09:42:16.531Z,37.70
2017-12-30T09:44:45.082Z,37.80
2017-12-30T09:47:13.469Z,38.30
2017-12-30T09:49:41.176Z,37.90
2017-12-30T09:52:08.802Z,38.20
2017-12-30T09:54:36.447Z,37.90
2017-12-30T09:57:04.091Z,38.00
2017-12-30T09:59:31.769Z,38.30
2017-12-30T10:01:59.414Z,37.60
2017-12-30T10:04:27.053Z,37.60
2017-12-30T10:06:54.705Z,37.90
2017-12-30T10:09:22.346Z,38.30
2017-12-30T10:11:49.972Z,38.40
2017-12-30T10:14:17.631Z,38.30
2017-12-30T10:16:45.258Z,37.90
2017-12-30T10:19:12.888Z,38.20
2017-12-30T10:21:40.549Z,37.80
2017-12-30T10:24:08.158Z,38.70
2017-12-30T10:26:36.003Z,37.80
2017-12-30T10:29:04.585Z,38.00
2017-12-30T10:31:32.198Z,37.90
2017-12-30T10:33:59.851Z,38.00
2017-12-30T10:36:27.499Z,37.70
2017-12-30T10:38:56.318Z,39.10
2017-12-30T10:41:23.945Z,39.10
2017-12-30T10:43:51.761Z,38.80
2017-12-30T10:46:19.424Z,39.00
2017-12-30T10:48:47.817Z,40.10
2017-12-30T10:51:15.665Z,40.00
2017-12-30T10:53:43.285Z,40.50
2017-12-30T10:56:11.675Z,41.40
2017-12-30T10:58:39.339Z,41.40
2017-12-30T11:01:07.002Z,41.80
2017-12-30T11:03:34.688Z,41.80
2017-12-30T11:06:03.138Z,43.10
2017-12-30T11:08:30.750Z,43.10
2017-12-30T11:10:58.398Z,43.00
2017-12-30T11:13:26.155Z,43.30
2017-12-30T11:15:53.814Z,43.00
2017-12-30T11:18:21.425Z,42.70
2017-12-30T11:20:49.082Z,43.20
2017-12-30T11:23:16.749Z,43.20
2017-12-30T11:25:44.401Z,42.80
2017-12-30T11:28:12.063Z,42.60
2017-12-30T11:30:40.473Z,42.80
2017-12-30T11:33:08.106Z,42.80
2017-12-30T11:35:36.001Z,43.30
2017-12-30T11:38:03.608Z,43.60
2017-12-30T11:40:31.265Z,43.80
2017-12-30T11:42:58.890Z,44.10
2017-12-30T11:45:27.283Z,44.40
2017-12-30T11:47:55.078Z,44.20
2017-12-30T11:50:22.710Z,44.30
2017-12-30T11:52:50.397Z,43.10
2017-12-30T11:55:18.014Z,43.40
2017-12-30T11:57:45.671Z,43.60
2017-12-30T12:00:13.317Z,44.00
2017-12-30T12:02:41.705Z,44.10
2017-12-30T12:05:09.369Z,43.80
2017-12-30T12:07:36.985Z,43.50
2017-12-30T12:10:05.533Z,44.10
2017-12-30T12:12:33.188Z,44.10
2017-12-30T12:15:00.818Z,44.50
2017-12-30T12:17:28.480Z,45.10
2017-12-30T12:19:56.197Z,45.20
2017-12-30T12:22:23.839Z,44.70
2017-12-30T12:24:51.737Z,44.30
2017-12-30T12:27:20.138Z,43.70
2017-12-30T12:29:48.480Z,43.70
2017-12-30T12:32:16.142Z,44.40
2017-12-30T12:34:43.763Z,43.60
2017-12-30T12:37:12.169Z,45.20
2017-12-30T12:39:39.789Z,45.10
2017-12-30T12:42:07.449Z,46.10
2017-12-30T12:44:35.088Z,46.40
2017-12-30T12:47:02.721Z,46.80
2017-12-30T12:49:31.134Z,47.50
2017-12-30T12:51:58.764Z,47.50
2017-12-30T12:54:26.424Z,48.20
2017-12-30T12:56:54.158Z,48.10
2017-12-30T12:59:21.812Z,48.50
2017-12-30T13:01:49.477Z,48.60
2017-12-30T13:04:17.089Z,48.40
2017-12-30T13:06:44.966Z,48.80
2017-12-30T13:09:12.615Z,48.70
2017-12-30T13:11:40.280Z,48.60
2017-12-30T13:14:07.897Z,50.00
2017-12-30T13:16:35.694Z,53.90
2017-12-30T13:19:04.158Z,64.70
2017-12-30T13:21:32.548Z,72.60
2017-12-30T13:24:00.205Z,72.50
2017-12-30T13:26:33.223Z,78.30
2017-12-30T13:28:55.681Z,84.50
2017-12-30T13:31:23.323Z,87.10
2017-12-30T13:33:51.725Z,92.50
2017-12-30T13:36:19.381Z,92.50
2017-12-30T13:38:47.018Z,93.50
2017-12-30T13:41:14.676Z,95.30
2017-12-30T13:43:42.321Z,96.30
2017-12-30T13:46:09.993Z,97.50
2017-12-30T13:48:37.676Z,98.60
2017-12-30T13:51:05.429Z,99.30
2017-12-30T13:53:33.049Z,98.90
2017-12-30T13:56:00.705Z,99.80
2017-12-30T13:58:29.127Z,99.90
2017-12-30T14:00:56.750Z,99.90
2017-12-30T14:03:24.562Z,99.90
2017-12-30T14:05:52.957Z,99.90
2017-12-30T14:08:20.581Z,99.90
2017-12-30T14:10:48.997Z,99.90
2017-12-30T14:13:16.615Z,99.90
2017-12-30T14:15:44.269Z,99.90
2017-12-30T14:18:11.877Z,99.90
2017-12-30T14:20:39.502Z,99.90
2017-12-30T14:23:07.152Z,99.90
2017-12-30T14:25:35.013Z,99.90
2017-12-30T14:28:02.679Z,99.90
2017-12-30T14:30:31.058Z,99.90
2017-12-30T14:32:58.670Z,99.90
2017-12-30T14:35:26.329Z,99.90
2017-12-30T14:37:54.940Z,99.90
2017-12-30T14:40:22.593Z,99.90
2017-12-30T14:42:50.208Z,99.90
2017-12-30T14:45:17.821Z,99.90
2017-12-30T14:47:46.245Z,99.90
2017-12-30T14:50:13.884Z,99.90
2017-12-30T14:52:41.726Z,99.90
2017-12-30T14:55:09.351Z,99.90
2017-12-30T14:57:36.974Z,99.90
2017-12-30T15:00:04.654Z,99.90
2017-12-30T15:02:32.274Z,99.90
2017-12-30T15:05:00.695Z,99.90
2017-12-30T15:07:28.313Z,99.90
2017-12-30T15:09:56.000Z,99.90
2017-12-30T15:12:23.654Z,99.90
2017-12-30T15:14:51.281Z,99.90
2017-12-30T15:17:18.917Z,99.90
2017-12-30T15:19:46.529Z,99.90
2017-12-30T15:22:15.030Z,99.90
2017-12-30T15:24:42.666Z,99.90
2017-12-30T15:27:10.281Z,99.90
2017-12-30T15:29:38.729Z,99.90
2017-12-30T15:32:06.345Z,99.90
2017-12-30T15:34:34.150Z,99.90
2017-12-30T15:37:02.562Z,99.90
2017-12-30T15:39:30.194Z,99.90
2017-12-30T15:41:57.850Z,99.90
2017-12-30T15:44:25.697Z,99.90
2017-12-30T15:46:53.308Z,99.90
2017-12-30T15:49:21.789Z,99.90
2017-12-30T15:51:49.427Z,99.90
2017-12-30T15:54:17.110Z,99.90
2017-12-30T15:56:45.023Z,99.90
2017-12-30T15:59:12.649Z,99.90
2017-12-30T16:01:41.097Z,99.90
2017-12-30T16:04:08.708Z,99.90
2017-12-30T16:06:36.381Z,99.90
2017-12-30T16:09:04.131Z,99.90
2017-12-30T16:11:31.760Z,99.90
2017-12-30T16:13:59.431Z,99.90
2017-12-30T16:16:27.912Z,99.90
2017-12-30T16:18:55.644Z,99.90
2017-12-30T16:21:23.255Z,99.90
2017-12-30T16:23:50.886Z,99.90
2017-12-30T16:26:18.543Z,99.90
2017-12-30T16:28:46.193Z,99.90
2017-12-30T16:31:13.864Z,99.90
2017-12-30T16:33:41.722Z,99.80
2017-12-30T16:36:09.354Z,99.90
2017-12-30T16:38:37.247Z,99.10
2017-12-30T16:41:05.727Z,98.30
2017-12-30T16:43:33.513Z,98.30
2017-12-30T16:46:01.378Z,98.10
2017-12-30T16:48:29.083Z,97.50
2017-12-30T16:50:56.759Z,97.50
2017-12-30T16:53:24.446Z,98.00
2017-12-30T16:55:52.105Z,98.60
2017-12-30T16:58:20.499Z,99.30
2017-12-30T17:00:48.117Z,98.80
2017-12-30T17:03:16.536Z,97.80
2017-12-30T17:05:44.157Z,97.70
2017-12-30T17:08:11.821Z,97.10
2017-12-30T17:10:39.460Z,97.60
2017-12-30T17:13:07.083Z,97.40
2017-12-30T17:15:35.680Z,98.10
2017-12-30T17:18:03.286Z,98.00
2017-12-30T17:20:31.707Z,97.70
2017-12-30T17:22:59.321Z,97.80
2017-12-30T17:25:26.978Z,96.80
2017-12-30T17:27:54.665Z,96.80
2017-12-30T17:30:22.277Z,97.60
2017-12-30T17:32:49.962Z,97.90
2017-12-30T17:35:17.626Z,97.90
2017-12-30T17:37:46.944Z,97.80
2017-12-30T17:40:14.636Z,97.80
2017-12-30T17:42:42.256Z,97.30
2017-12-30T17:45:10.042Z,98.20
2017-12-30T17:47:37.702Z,97.60
2017-12-30T17:50:06.255Z,95.30
2017-12-30T17:52:34.054Z,95.30
2017-12-30T17:55:01.711Z,94.80
2017-12-30T17:57:29.352Z,95.90
2017-12-30T17:59:56.990Z,96.40
2017-12-30T18:02:24.645Z,95.70
2017-12-30T18:04:52.291Z,96.30
2017-12-30T18:07:20.294Z,96.00
2017-12-30T18:09:47.943Z,98.10
2017-12-30T18:12:17.787Z,97.60
2017-12-30T18:14:45.597Z,96.90
2017-12-30T18:17:13.245Z,95.50
2017-12-30T18:19:40.864Z,95.90
2017-12-30T18:22:08.529Z,95.80
2017-12-30T18:24:36.185Z,95.60
2017-12-30T18:27:04.631Z,93.90
2017-12-30T18:29:32.283Z,93.70
2017-12-30T18:31:59.914Z,93.40
2017-12-30T18:34:27.576Z,92.80
2017-12-30T18:36:55.264Z,93.50
2017-12-30T18:39:22.899Z,93.90
2017-12-30T18:41:50.563Z,94.80
2017-12-30T18:44:18.341Z,96.60
2017-12-30T18:46:46.217Z,97.00
2017-12-30T18:49:13.882Z,96.10
2017-12-30T18:51:41.769Z,95.70
2017-12-30T18:54:09.457Z,94.90
2017-12-30T18:56:37.080Z,94.40
2017-12-30T18:59:04.962Z,95.20
2017-12-30T19:01:32.593Z,94.60
2017-12-30T19:04:00.211Z,94.80
2017-12-30T19:06:27.901Z,93.50
2017-12-30T19:08:55.674Z,92.90
2017-12-30T19:11:24.437Z,91.40
2017-12-30T19:13:52.854Z,91.20
2017-12-30T19:16:20.500Z,91.20
2017-12-30T19:18:48.152Z,90.80
2017-12-30T19:21:16.017Z,90.80
2017-12-30T19:23:43.668Z,90.30
2017-12-30T19:26:11.304Z,90.50
2017-12-30T19:28:38.940Z,90.00
2017-12-30T19:31:06.605Z,89.70
2017-12-30T19:33:34.293Z,89.90
2017-12-30T19:36:02.768Z,87.40
2017-12-30T19:38:30.430Z,87.30
2017-12-30T19:40:58.055Z,87.20
2017-12-30T19:43:26.479Z,87.40
2017-12-30T19:45:54.136Z,87.20
2017-12-30T19:48:21.790Z,87.90
2017-12-30T19:50:49.434Z,88.10
2017-12-30T19:53:17.073Z,88.10
2017-12-30T19:55:44.942Z,87.60
2017-12-30T19:58:12.572Z,87.90
2017-12-30T20:00:40.235Z,87.30
2017-12-30T20:03:08.633Z,86.70
2017-12-30T20:05:36.246Z,87.20
2017-12-30T20:08:03.917Z,87.10
2017-12-30T20:10:31.677Z,87.50
2017-12-30T20:12:59.333Z,87.90
2017-12-30T20:15:26.974Z,88.60
2017-12-30T20:17:54.657Z,88.30
2017-12-30T20:20:22.313Z,87.80
2017-12-30T20:22:50.024Z,87.10
2017-12-30T20:25:17.675Z,86.90
2017-12-30T20:27:45.298Z,86.80
2017-12-30T20:30:12.920Z,86.80
2017-12-30T20:32:41.349Z,87.20
2017-12-30T20:35:08.991Z,86.40
2017-12-30T20:37:36.654Z,86.50
2017-12-30T20:40:04.559Z,86.50
2017-12-30T20:42:32.197Z,86.10
2017-12-30T20:45:00.608Z,86.30
2017-12-30T20:47:28.242Z,86.30
2017-12-30T20:49:56.031Z,85.80
2017-12-30T20:52:23.671Z,85.40
2017-12-30T20:54:51.308Z,85.40
2017-12-30T20:57:18.972Z,85.60
2017-12-30T20:59:47.369Z,85.10
2017-12-30T21:02:15.153Z,85.10
2017-12-30T21:04:42.775Z,85.00
2017-12-30T21:07:10.391Z,84.70
2017-12-30T21:09:38.077Z,84.90
2017-12-30T21:12:05.948Z,84.90
2017-12-30T21:14:33.599Z,85.30
2017-12-30T21:17:01.217Z,85.40
2017-12-30T21:19:28.853Z,84.80
2017-12-30T21:21:56.509Z,84.30
2017-12-30T21:24:24.172Z,84.20
2017-12-30T21:26:51.840Z,84.60
2017-12-30T21:29:19.461Z,84.80
2017-12-30T21:31:47.090Z,83.90
2017-12-30T21:34:14.998Z,83.70
2017-12-30T21:36:42.638Z,83.40
2017-12-30T21:39:10.333Z,83.00
2017-12-30T21:41:37.962Z,83.10
2017-12-30T21:44:05.677Z,82.50
2017-12-30T21:46:33.379Z,82.20
2017-12-30T21:49:00.998Z,81.60
2017-12-30T21:51:29.425Z,82.00
2017-12-30T21:53:57.044Z,81.90
2017-12-30T21:56:24.680Z,81.50
2017-12-30T21:58:52.345Z,81.10
2017-12-30T22:01:19.973Z,81.10
2017-12-30T22:03:47.687Z,81.30
2017-12-30T22:06:15.305Z,81.30
2017-12-30T22:08:42.934Z,81.20
2017-12-30T22:11:10.624Z,81.20
2017-12-30T22:13:39.078Z,82.30
2017-12-30T22:16:07.587Z,82.00
2017-12-30T22:18:35.221Z,81.80
2017-12-30T22:21:02.854Z,82.00
2017-12-30T22:23:30.536Z,82.00
2017-12-30T22:25:58.179Z,81.70
2017-12-30T22:28:26.045Z,81.50
2017-12-30T22:30:53.694Z,80.20
2017-12-30T22:33:21.309Z,81.20
2017-12-30T22:35:49.739Z,83.10
2017-12-30T22:38:17.370Z,83.10
2017-12-30T22:40:45.096Z,84.50
2017-12-30T22:43:12.734Z,83.10
2017-12-30T22:45:40.369Z,82.80
2017-12-30T22:48:08.034Z,81.50
2017-12-30T22:50:35.709Z,81.40
2017-12-30T22:53:03.377Z,80.50
2017-12-30T22:55:31.003Z,80.10
2017-12-30T22:57:58.629Z,79.70
2017-12-30T23:03:36.056Z,78.00
2017-12-30T23:06:03.717Z,78.30
2017-12-30T23:08:32.100Z,77.40
2017-12-30T23:10:59.760Z,77.40
2017-12-30T23:13:27.413Z,78.10
2017-12-30T23:15:55.077Z,78.60
2017-12-30T23:18:22.738Z,77.80
2017-12-30T23:20:50.379Z,77.70
2017-12-30T23:23:18.009Z,77.70
2017-12-30T23:25:45.697Z,76.90
2017-12-30T23:28:14.225Z,76.10
2017-12-30T23:30:41.902Z,76.10
2017-12-30T23:33:09.534Z,76.00
2017-12-30T23:35:37.174Z,75.40
2017-12-30T23:38:04.988Z,74.70
2017-12-30T23:40:32.613Z,73.30
2017-12-30T23:43:01.075Z,72.60
2017-12-30T23:45:29.481Z,69.60
2017-12-30T23:47:57.109Z,69.60
2017-12-30T23:50:25.017Z,70.30
2017-12-30T23:52:52.641Z,70.80
2017-12-30T23:55:20.303Z,71.50
2017-12-30T23:57:47.944Z,70.80
